Dawson, Yukon Territory

4:59 AM PDT on August 01, 2014 (GMT -0700)
Dawson (CYDA) Elev 1214 ft | 64.04 °N, 139.13 °W | Change Station

Current weather conditions updated 1 hour ago

Mostly Cloudy
Mostly Cloudy
46 °F
Feels Like 46 °F
N
0
Wind Variable Wind from North

Today is forecast to be Cooler than yesterday. Afternoon showers.

Today
High -- | Low -- °F
--% Chance of Precip.
Yesterday
High -- | Low -- °F
Precip. -- in
5:24 AM 11:18 PM
Waxing Crescent, 26% visible
Pressure 30.19 in
Visibility 20.0 miles
Clouds Few 15000 ft
Mostly Cloudy 22000 ft
Dew Point 45 °F
Humidity 93%
Rainfall 0.00 in
Snow Depth Not available.
UV 0 out of 12
Pollen Not available.
Air Quality Not available.
Flu Activity Not available.
METAR CYDA 011000Z 00000KT 20SM FEW150 BKN220 08/07 A3015 RMK AC2CI3 STATION OPEN FOR MEDEVAC SLP222

More Conditions Fewer Conditions

Pressure 30.19 in
Visibility 20.0 miles
Clouds Few 15000 ft
Mostly Cloudy 22000 ft
Dew Point 45 °F
Humidity 93%
Rainfall 0.00 in
Snow Depth Not available.
UV 0 out of 12
Pollen Not available.
Air Quality Not available.
Flu Activity Not available.
METAR CYDA 011000Z 00000KT 20SM FEW150 BKN220 08/07 A3015 RMK AC2CI3 STATION OPEN FOR MEDEVAC SLP222

More Conditions Fewer Conditions

10-Day Weather Forecast

Almanac

Astronomy

Aug. 01, 2014 Rise Set
Actual Time 5:24 AM PDT 11:18 PM PDT
Civil Twilight 3:56 AM PDT 12:44 AM PDT
Nautical Twilight Sun does not rise Sun does not rise
Astronomical Twilight Sun does not rise Sun does not rise
Moon 1:18 PM PDT 11:39 PM PDT
Length of Visible Light 20h 47m
Length of Day
17h 53m
Tomorrow will be 6m 29s shorter.
Waxing Crescent, 26% of the Moon is Illuminated
Today
Waxing Crescent
Aug 3
First Quarter
Aug 10
Full
Aug 17
Last Quarter
Aug 25
New

Yesterday's Extremes

Country Highs Country Lows

Community

WunderPhotos

Upload Photos

1,739,538 photos uploaded!

Nearby

Snow Depth

Not available.

Earthquake Activity

City Distance Mag. Time & Date
No recent earthquake activity has been reported nearby.
Minimum magnitude displayed is 2.5.

Coastal Water Temperatures

Place Temperature
No Stations Reporting

Nearby Weather Stations

Station Location Temp. Dew Point Humidity Wind Precip. Elev Updated Type
Downtown Dawson, Dawson City 51.7 °F 47 °F 85% East  at  5.0 mph 0.00 in / hr 1394 ft 4:56 AM PDT Normal

Show More Stations Show Fewer Stations